createdAt,value
2022-11-12T00:00:59.794Z,103076.75
2022-11-12T00:03:28.098Z,103076.59
2022-11-12T00:05:55.113Z,103080.94
2022-11-12T00:08:22.797Z,103077.44
2022-11-12T00:10:50.390Z,103079.09
2022-11-12T00:13:17.435Z,103082.75
2022-11-12T00:15:46.391Z,103081.06
2022-11-12T00:18:13.592Z,103087.47
2022-11-12T00:20:42.234Z,103086.94
2022-11-12T00:23:09.418Z,103085.25
2022-11-12T00:25:36.467Z,103082.75
2022-11-12T00:28:06.385Z,103084.53
2022-11-12T00:30:33.670Z,103087.75
2022-11-12T00:33:02.661Z,103084.38
2022-11-12T00:35:31.672Z,103084.38
2022-11-12T00:38:00.994Z,103090.53
2022-11-12T00:40:29.206Z,103092.06
2022-11-12T00:42:56.231Z,103088.44
2022-11-12T00:45:23.807Z,103094.72
2022-11-12T00:47:54.382Z,103100.00
2022-11-12T00:50:21.483Z,103096.38
2022-11-12T00:52:48.510Z,103094.72
2022-11-12T00:55:16.932Z,103081.47
2022-11-12T00:57:43.890Z,103088.31
2022-11-12T01:00:16.647Z,103084.69
2022-11-12T01:02:49.445Z,103080.25
2022-11-12T01:05:18.761Z,103085.53
2022-11-12T01:07:45.922Z,103086.34
2022-11-12T01:10:14.224Z,103087.19
2022-11-12T01:12:42.596Z,103083.84
2022-11-12T01:15:10.341Z,103093.59
2022-11-12T01:17:37.296Z,103099.88
2022-11-12T01:20:05.554Z,103096.66
2022-11-12T01:22:32.504Z,103086.50
2022-11-12T01:24:59.487Z,103102.78
2022-11-12T01:27:26.601Z,103088.16
2022-11-12T01:29:54.883Z,103101.38
2022-11-12T01:32:21.905Z,103083.81
2022-11-12T01:34:50.592Z,103085.78
2022-11-12T01:37:17.540Z,103084.38
2022-11-12T01:39:44.483Z,103093.28
2022-11-12T01:42:12.253Z,103094.13
2022-11-12T01:44:44.548Z,103085.75
2022-11-12T01:47:19.673Z,103092.16
2022-11-12T01:49:57.283Z,103089.78
2022-11-12T01:52:31.691Z,103092.97
2022-11-12T01:55:06.801Z,103091.84
2022-11-12T01:57:39.361Z,103098.50
2022-11-12T02:00:10.839Z,103099.03
2022-11-12T02:02:40.778Z,103096.50
2022-11-12T02:05:10.868Z,103094.84
2022-11-12T02:07:42.116Z,103091.47
2022-11-12T02:10:10.278Z,103095.09
2022-11-12T02:12:56.494Z,103087.19
2022-11-12T02:15:23.542Z,103092.88
2022-11-12T02:17:52.774Z,103092.44
2022-11-12T02:20:20.357Z,103093.03
2022-11-12T02:22:48.766Z,103088.56
2022-11-12T02:25:22.043Z,103092.69
2022-11-12T02:27:53.109Z,103087.66
2022-11-12T02:30:31.471Z,103084.56
2022-11-12T02:32:58.818Z,103092.06
2022-11-12T02:35:25.895Z,103090.66
2022-11-12T02:37:54.268Z,103077.97
2022-11-12T02:40:21.445Z,103082.81
2022-11-12T02:42:48.398Z,103089.28
2022-11-12T02:45:16.191Z,103088.34
2022-11-12T02:47:43.368Z,103085.56
2022-11-12T02:50:11.242Z,103088.19
2022-11-12T02:52:39.727Z,103082.81
2022-11-12T02:55:09.755Z,103077.13
2022-11-12T02:57:38.467Z,103075.88
2022-11-12T03:00:10.115Z,103071.91
2022-11-12T03:02:43.211Z,103077.28
2022-11-12T03:05:11.247Z,103078.97
2022-11-12T03:07:38.715Z,103080.38
2022-11-12T03:10:08.476Z,103073.75
2022-11-12T03:12:35.423Z,103075.44
2022-11-12T03:15:02.396Z,103077.09
2022-11-12T03:17:30.193Z,103082.97
2022-11-12T03:19:57.111Z,103095.19
2022-11-12T03:22:24.036Z,103089.81
2022-11-12T03:24:50.964Z,103095.09
2022-11-12T03:27:19.253Z,103103.81
2022-11-12T03:29:46.220Z,103096.63
2022-11-12T03:32:13.192Z,103097.44
2022-11-12T03:34:40.112Z,103089.91
2022-11-12T03:37:09.412Z,103097.09
2022-11-12T03:39:36.634Z,103094.78
2022-11-12T03:42:03.917Z,103088.59
2022-11-12T03:44:32.294Z,103089.88
2022-11-12T03:46:59.303Z,103094.97
2022-11-12T03:49:26.281Z,103088.00
2022-11-12T03:51:53.227Z,103085.09
2022-11-12T03:54:20.163Z,103091.47
2022-11-12T03:56:47.100Z,103083.94
2022-11-12T03:59:14.006Z,103089.47
2022-11-12T04:01:42.288Z,103086.81
2022-11-12T04:04:09.950Z,103085.63
2022-11-12T04:06:55.704Z,103079.25
2022-11-12T04:09:22.652Z,103079.50
2022-11-12T04:11:49.595Z,103085.88
2022-11-12T04:14:16.537Z,103092.38
2022-11-12T04:17:03.305Z,103092.88
2022-11-12T04:20:08.660Z,103089.19
2022-11-12T04:22:35.679Z,103092.06
2022-11-12T04:25:21.188Z,103095.44
2022-11-12T04:27:48.106Z,103091.22
2022-11-12T04:30:18.828Z,103100.13
2022-11-12T04:32:50.855Z,103097.59
2022-11-12T04:35:20.911Z,103090.16
2022-11-12T04:37:48.530Z,103094.34
2022-11-12T04:40:37.298Z,103098.78
2022-11-12T04:43:26.912Z,103094.47
2022-11-12T04:45:55.305Z,103104.91
2022-11-12T04:48:25.459Z,103098.41
2022-11-12T04:50:57.760Z,103099.00
2022-11-12T04:53:25.625Z,103091.91
2022-11-12T04:55:55.024Z,103097.44
2022-11-12T04:58:22.797Z,103096.97
2022-11-12T05:00:51.343Z,103092.41
2022-11-12T05:03:18.865Z,103084.88
2022-11-12T05:05:47.149Z,103091.75
2022-11-12T05:08:14.113Z,103107.34
2022-11-12T05:10:41.069Z,103102.44
2022-11-12T05:13:08.011Z,103098.75
2022-11-12T05:15:34.922Z,103092.03
2022-11-12T05:18:01.956Z,103089.31
2022-11-12T05:20:28.936Z,103094.09
2022-11-12T05:23:06.868Z,103090.66
2022-11-12T05:25:35.278Z,103092.16
2022-11-12T05:28:02.212Z,103092.91
2022-11-12T05:30:29.135Z,103091.84
2022-11-12T05:32:56.114Z,103086.28
2022-11-12T05:35:23.095Z,103087.97
2022-11-12T05:37:50.043Z,103090.63
2022-11-12T05:40:18.299Z,103080.06
2022-11-12T05:42:45.471Z,103072.88
2022-11-12T05:45:13.978Z,103082.72
2022-11-12T05:47:40.934Z,103084.38
2022-11-12T05:50:08.973Z,103092.88
2022-11-12T05:52:36.408Z,103088.19
2022-11-12T05:55:03.511Z,103087.84
2022-11-12T05:57:31.765Z,103101.66
2022-11-12T05:59:58.756Z,103107.16
2022-11-12T06:02:25.712Z,103108.94
2022-11-12T06:04:52.623Z,103102.50
2022-11-12T06:07:19.652Z,103097.44
2022-11-12T06:09:46.614Z,103110.03
2022-11-12T06:12:13.553Z,103123.22
2022-11-12T06:14:41.841Z,103122.13
2022-11-12T06:17:08.782Z,103110.50
2022-11-12T06:19:35.725Z,103106.91
2022-11-12T06:22:02.667Z,103113.13
2022-11-12T06:24:35.122Z,103114.84
2022-11-12T06:27:02.410Z,103110.84
2022-11-12T06:29:30.085Z,103101.97
2022-11-12T06:31:58.341Z,103095.53
2022-11-12T06:34:25.278Z,103112.66
2022-11-12T06:36:52.208Z,103108.38
2022-11-12T06:39:19.416Z,103107.16
2022-11-12T06:41:46.328Z,103108.22
2022-11-12T06:44:15.594Z,103103.66
2022-11-12T06:46:46.190Z,103117.94
2022-11-12T06:49:14.570Z,103115.31
2022-11-12T06:51:41.574Z,103108.81
2022-11-12T06:54:08.509Z,103113.38
2022-11-12T06:56:35.422Z,103113.63
2022-11-12T06:59:02.559Z,103122.47
2022-11-12T07:01:29.484Z,103122.47
2022-11-12T07:03:56.501Z,103114.31
2022-11-12T07:06:24.832Z,103116.72
2022-11-12T07:08:51.759Z,103133.06
2022-11-12T07:11:19.963Z,103135.47
2022-11-12T07:13:48.032Z,103138.53
2022-11-12T07:16:18.480Z,103133.75
2022-11-12T07:18:46.839Z,103139.50
2022-11-12T07:21:16.424Z,103136.47
2022-11-12T07:23:46.402Z,103145.00
2022-11-12T07:26:17.727Z,103140.75
2022-11-12T07:28:45.340Z,103161.97
2022-11-12T07:31:15.303Z,103158.84
2022-11-12T07:33:43.053Z,103155.94
2022-11-12T07:36:12.835Z,103148.72
2022-11-12T07:38:41.981Z,103145.38
2022-11-12T07:41:14.599Z,103150.94
2022-11-12T07:43:44.522Z,103157.88
2022-11-12T07:46:15.434Z,103160.41
2022-11-12T07:48:44.473Z,103157.38
2022-11-12T07:51:15.110Z,103152.34
2022-11-12T07:53:43.628Z,103155.47
2022-11-12T07:56:15.056Z,103160.31
2022-11-12T07:58:42.564Z,103161.41
2022-11-12T08:01:23.193Z,103164.41
2022-11-12T08:03:50.240Z,103156.13
2022-11-12T08:06:17.171Z,103160.69
2022-11-12T08:08:44.074Z,103170.78
2022-11-12T08:11:12.411Z,103170.50
2022-11-12T08:13:39.386Z,103172.56
2022-11-12T08:16:07.214Z,103173.06
2022-11-12T08:18:34.224Z,103174.50
2022-11-12T08:21:01.638Z,103178.13
2022-11-12T08:23:29.357Z,103164.41
2022-11-12T08:25:58.808Z,103171.88
2022-11-12T08:28:29.369Z,103163.00
2022-11-12T08:30:57.691Z,103159.56
2022-11-12T08:33:24.790Z,103171.28
2022-11-12T08:35:51.691Z,103164.22
2022-11-12T08:38:18.760Z,103169.31
2022-11-12T08:40:45.699Z,103160.41
2022-11-12T08:43:12.679Z,103161.22
2022-11-12T08:45:42.435Z,103167.19
2022-11-12T08:48:14.217Z,103164.00
2022-11-12T08:50:41.821Z,103173.53
2022-11-12T08:53:11.443Z,103168.31
2022-11-12T08:55:38.674Z,103166.94
2022-11-12T08:58:06.460Z,103172.94
2022-11-12T09:00:39.662Z,103176.75
2022-11-12T09:03:14.019Z,103179.34
2022-11-12T09:05:41.721Z,103176.38
2022-11-12T09:08:11.230Z,103183.97
2022-11-12T09:10:38.922Z,103184.72
2022-11-12T09:13:06.298Z,103182.38
2022-11-12T09:15:38.398Z,103186.84
2022-11-12T09:18:12.579Z,103190.28
2022-11-12T09:20:40.022Z,103193.13
2022-11-12T09:23:12.672Z,103197.94
2022-11-12T09:25:40.637Z,103193.19
2022-11-12T09:28:10.010Z,103191.47
2022-11-12T09:30:38.009Z,103192.97
2022-11-12T09:33:05.324Z,103195.63
2022-11-12T09:35:33.841Z,103195.53
2022-11-12T09:38:00.849Z,103195.53
2022-11-12T09:40:46.037Z,103185.91
2022-11-12T09:43:24.819Z,103178.31
2022-11-12T09:46:21.475Z,103174.50
2022-11-12T09:48:51.727Z,103180.34
2022-11-12T09:51:27.167Z,103181.16
2022-11-12T09:53:57.752Z,103182.00
2022-11-12T09:56:28.242Z,103181.06
2022-11-12T09:58:55.612Z,103188.91
2022-11-12T10:01:38.704Z,103191.44
2022-11-12T10:04:28.149Z,103182.22
2022-11-12T10:07:06.135Z,103176.44
2022-11-12T10:09:48.076Z,103177.59
2022-11-12T10:12:31.521Z,103174.22
2022-11-12T10:15:55.629Z,103186.88
2022-11-12T10:18:39.580Z,103190.16
2022-11-12T10:21:22.775Z,103187.16
2022-11-12T10:23:53.760Z,103183.16
2022-11-12T10:26:24.796Z,103181.63
2022-11-12T10:28:57.861Z,103189.81
2022-11-12T10:31:24.923Z,103184.47
2022-11-12T10:34:02.167Z,103189.47
2022-11-12T10:36:33.859Z,103192.66
2022-11-12T10:39:02.260Z,103182.00
2022-11-12T10:41:32.423Z,103175.47
2022-11-12T10:44:02.444Z,103179.78
2022-11-12T10:46:33.075Z,103180.72
2022-11-12T10:49:03.466Z,103181.38
2022-11-12T10:51:33.182Z,103179.31
2022-11-12T10:54:20.736Z,103176.78
2022-11-12T10:56:55.103Z,103178.25
2022-11-12T10:59:24.393Z,103173.56
2022-11-12T11:01:57.585Z,103191.81
2022-11-12T11:04:35.832Z,103186.00
2022-11-12T11:07:06.879Z,103179.81
2022-11-12T11:09:35.623Z,103186.78
2022-11-12T11:12:03.242Z,103188.19
2022-11-12T11:14:34.120Z,103192.00
2022-11-12T11:17:08.585Z,103184.09
2022-11-12T11:19:39.619Z,103177.66
2022-11-12T11:22:35.197Z,103183.69
2022-11-12T11:25:23.021Z,103185.44
2022-11-12T11:28:05.212Z,103189.81
2022-11-12T11:30:33.557Z,103188.31
2022-11-12T11:33:25.636Z,103180.00
2022-11-12T11:36:21.944Z,103177.03
2022-11-12T11:38:59.722Z,103173.91
2022-11-12T11:41:47.100Z,103163.94
2022-11-12T11:44:31.577Z,103161.44
2022-11-12T11:47:19.511Z,103154.94
2022-11-12T11:50:16.371Z,103151.97
2022-11-12T11:52:53.800Z,103146.78
2022-11-12T11:55:37.065Z,103140.81
2022-11-12T11:58:52.231Z,103140.97
2022-11-12T12:01:31.359Z,103134.13
2022-11-12T12:04:32.906Z,103127.97
2022-11-12T12:07:17.986Z,103135.66
2022-11-12T12:09:53.162Z,103129.63
2022-11-12T12:12:40.231Z,103131.31
2022-11-12T12:15:36.821Z,103128.00
2022-11-12T12:18:16.296Z,103130.66
2022-11-12T12:20:53.952Z,103130.66
2022-11-12T12:23:30.107Z,103121.31
2022-11-12T12:26:01.192Z,103123.97
2022-11-12T12:28:40.064Z,103117.63
2022-11-12T12:31:17.047Z,103111.94
2022-11-12T12:33:51.555Z,103113.31
2022-11-12T12:36:26.896Z,103113.13
2022-11-12T12:39:04.866Z,103109.28
2022-11-12T12:41:42.604Z,103104.28
2022-11-12T12:44:11.099Z,103104.78
2022-11-12T12:46:44.475Z,103110.25
2022-11-12T12:49:19.048Z,103104.22
2022-11-12T12:51:47.081Z,103094.88
2022-11-12T12:54:57.381Z,103099.22
2022-11-12T12:57:34.849Z,103102.06
2022-11-12T13:00:31.760Z,103100.56
2022-11-12T13:03:00.848Z,103097.25
2022-11-12T13:05:32.168Z,103095.91
2022-11-12T13:08:05.896Z,103095.56
2022-11-12T13:10:53.901Z,103092.75
2022-11-12T13:13:32.339Z,103088.25
2022-11-12T13:16:02.142Z,103089.25
2022-11-12T13:19:02.021Z,103086.94
2022-11-12T13:21:30.297Z,103087.59
2022-11-12T13:24:09.082Z,103087.13
2022-11-12T13:26:52.669Z,103075.81
2022-11-12T13:29:42.950Z,103074.31
2022-11-12T13:32:33.978Z,103079.13
2022-11-12T13:35:30.067Z,103084.31
2022-11-12T13:38:01.823Z,103087.63
2022-11-12T13:40:43.889Z,103095.31
2022-11-12T13:43:23.066Z,103085.97
2022-11-12T13:45:57.561Z,103084.47
2022-11-12T13:48:29.800Z,103086.31
2022-11-12T13:51:06.083Z,103088.47
2022-11-12T13:53:33.267Z,103089.31
2022-11-12T13:56:00.436Z,103085.66
2022-11-12T13:58:30.875Z,103089.31
2022-11-12T14:01:01.288Z,103085.78
2022-11-12T14:03:36.601Z,103086.16
2022-11-12T14:06:15.149Z,103090.31
2022-11-12T14:09:29.614Z,103092.97
2022-11-12T14:12:26.619Z,103078.97
2022-11-12T14:15:18.544Z,103079.81
2022-11-12T14:18:00.028Z,103075.31
2022-11-12T14:20:33.118Z,103078.63
2022-11-12T14:23:13.860Z,103078.97
2022-11-12T14:25:49.210Z,103075.63
2022-11-12T14:28:27.971Z,103068.31
2022-11-12T14:30:56.427Z,103074.63
2022-11-12T14:33:26.724Z,103083.47
2022-11-12T14:35:59.367Z,103080.13
2022-11-12T14:38:33.232Z,103075.31
2022-11-12T14:41:07.724Z,103068.13
2022-11-12T14:43:41.383Z,103069.28
2022-11-12T14:46:21.125Z,103072.28
2022-11-12T14:48:53.563Z,103073.78
2022-11-12T14:51:24.547Z,103073.97
2022-11-12T14:53:58.868Z,103072.44
2022-11-12T14:56:35.790Z,103070.78
2022-11-12T14:59:04.241Z,103069.13
2022-11-12T15:02:14.491Z,103068.28
2022-11-12T15:04:25.734Z,103067.75
2022-11-12T15:06:55.033Z,103071.59
2022-11-12T15:09:36.194Z,103065.25
2022-11-12T15:12:08.914Z,103069.59
2022-11-12T15:14:36.355Z,103047.63
2022-11-12T15:17:05.934Z,103056.41
2022-11-12T15:19:35.174Z,103066.25
2022-11-12T15:22:08.770Z,103063.25
2022-11-12T15:24:38.956Z,103063.25
2022-11-12T15:27:34.173Z,103056.56
2022-11-12T15:30:16.296Z,103047.88
2022-11-12T15:32:44.425Z,103053.53
2022-11-12T15:35:33.196Z,103050.84
2022-11-12T15:38:05.542Z,103057.31
2022-11-12T15:40:46.046Z,103053.47
2022-11-12T15:43:16.859Z,103060.13
2022-11-12T15:45:48.695Z,103044.16
2022-11-12T15:48:15.732Z,103049.78
2022-11-12T15:50:42.924Z,103043.78
2022-11-12T15:53:10.012Z,103045.91
2022-11-12T15:55:39.964Z,103044.28
2022-11-12T15:58:15.697Z,103043.91
2022-11-12T16:00:43.000Z,103051.22
2022-11-12T16:03:15.370Z,103041.72
2022-11-12T16:05:45.278Z,103043.38
2022-11-12T16:08:13.114Z,103041.56
2022-11-12T16:10:45.272Z,103048.03
2022-11-12T16:13:16.505Z,103046.69
2022-11-12T16:15:43.541Z,103049.31
2022-11-12T16:18:14.550Z,103048.81
2022-11-12T16:20:41.532Z,103051.09
2022-11-12T16:23:08.990Z,103050.25
2022-11-12T16:25:40.506Z,103040.28
2022-11-12T16:28:15.886Z,103043.94
2022-11-12T16:30:45.378Z,103047.59
2022-11-12T16:33:13.588Z,103044.28
2022-11-12T16:35:41.366Z,103038.28
2022-11-12T16:38:14.743Z,103043.38
2022-11-12T16:40:42.857Z,103037.00
2022-11-12T16:43:11.223Z,103036.09
2022-11-12T16:45:41.656Z,103038.69
2022-11-12T16:48:17.046Z,103034.16
2022-11-12T16:50:45.281Z,103038.44
2022-11-12T16:53:13.392Z,103043.22
2022-11-12T16:55:41.017Z,103044.06
2022-11-12T16:58:13.753Z,103041.25
2022-11-12T17:00:43.960Z,103033.94
2022-11-12T17:03:13.818Z,103037.28
2022-11-12T17:05:40.834Z,103032.69
2022-11-12T17:08:11.023Z,103031.66
2022-11-12T17:10:38.500Z,103031.97
2022-11-12T17:13:05.503Z,103038.28
2022-11-12T17:15:33.858Z,103026.97
2022-11-12T17:18:00.786Z,103028.97
2022-11-12T17:20:27.825Z,103030.78
2022-11-12T17:22:54.811Z,103024.78
2022-11-12T17:25:21.799Z,103022.28
2022-11-12T17:27:48.761Z,103022.56
2022-11-12T17:30:16.013Z,103024.72
2022-11-12T17:32:44.393Z,103021.53
2022-11-12T17:35:18.144Z,103025.78
2022-11-12T17:37:45.126Z,103015.78
2022-11-12T17:40:12.216Z,103020.03
2022-11-12T17:42:49.915Z,103025.94
2022-11-12T17:45:17.317Z,103030.75
2022-11-12T17:47:46.823Z,103021.56
2022-11-12T17:50:14.011Z,103022.19
2022-11-12T17:52:40.947Z,103017.47
2022-11-12T17:55:09.172Z,103023.09
2022-11-12T17:57:36.259Z,103023.38
2022-11-12T18:00:04.874Z,103021.19
2022-11-12T18:02:32.146Z,103017.00
2022-11-12T18:05:01.485Z,103010.34
2022-11-12T18:07:28.526Z,103010.59
2022-11-12T18:09:55.488Z,103003.94
2022-11-12T18:12:22.439Z,103011.19
2022-11-12T18:14:49.439Z,103007.16
2022-11-12T18:17:16.584Z,102996.16
2022-11-12T18:19:43.563Z,102997.47
2022-11-12T18:22:15.306Z,102994.25
2022-11-12T18:24:42.437Z,102997.06
2022-11-12T18:27:09.422Z,102996.38
2022-11-12T18:29:36.419Z,102992.06
2022-11-12T18:32:03.787Z,103001.81
2022-11-12T18:34:30.906Z,103006.31
2022-11-12T18:36:58.112Z,103009.94
2022-11-12T18:39:26.552Z,103006.59
2022-11-12T18:41:54.772Z,103006.88
2022-11-12T18:44:25.912Z,102992.94
2022-11-12T18:46:53.397Z,102986.28
2022-11-12T18:49:20.461Z,102991.72
2022-11-12T18:51:47.500Z,102991.03
2022-11-12T18:54:16.100Z,102999.16
2022-11-12T18:56:44.381Z,102987.84
2022-11-12T18:59:14.375Z,102988.81
2022-11-12T19:01:41.387Z,102982.00
2022-11-12T19:04:11.396Z,102976.84
2022-11-12T19:06:38.426Z,102973.19
2022-11-12T19:09:05.893Z,102976.84
2022-11-12T19:11:32.991Z,102973.50
2022-11-12T19:14:01.344Z,102971.84
2022-11-12T19:16:28.388Z,102968.50
2022-11-12T19:18:55.792Z,102959.84
2022-11-12T19:21:26.094Z,102964.31
2022-11-12T19:23:54.998Z,102965.44
2022-11-12T19:26:23.593Z,102964.94
2022-11-12T19:28:50.789Z,102958.22
2022-11-12T19:31:21.599Z,102949.75
2022-11-12T19:33:48.986Z,102952.69
2022-11-12T19:36:20.655Z,102951.31
2022-11-12T19:38:47.918Z,102947.13
2022-11-12T19:41:19.673Z,102946.56
2022-11-12T19:43:47.762Z,102951.47
2022-11-12T19:46:15.449Z,102945.81
2022-11-12T19:48:44.335Z,102945.41
2022-11-12T19:51:13.255Z,102944.00
2022-11-12T19:53:44.347Z,102944.72
2022-11-12T19:56:14.148Z,102943.59
2022-11-12T19:58:45.135Z,102937.50
2022-11-12T20:01:14.758Z,102951.19
2022-11-12T20:03:43.346Z,102948.81
2022-11-12T20:06:12.954Z,102950.47
2022-11-12T20:08:40.384Z,102947.81
2022-11-12T20:11:07.739Z,102936.53
2022-11-12T20:13:34.765Z,102945.47
2022-11-12T20:16:07.056Z,102937.53
2022-11-12T20:18:34.227Z,102942.13
2022-11-12T20:21:05.613Z,102934.88
2022-11-12T20:23:34.228Z,102935.84
2022-11-12T20:26:07.768Z,102937.53
2022-11-12T20:28:35.134Z,102928.31
2022-11-12T20:31:05.657Z,102928.72
2022-11-12T20:33:35.511Z,102930.78
2022-11-12T20:36:09.772Z,102927.69
2022-11-12T20:38:37.745Z,102928.25
2022-11-12T20:41:06.380Z,102931.59
2022-11-12T20:43:34.157Z,102936.66
2022-11-12T20:46:01.274Z,102938.84
2022-11-12T20:48:28.956Z,102935.78
2022-11-12T20:51:23.062Z,102935.50
2022-11-12T20:53:58.724Z,102931.84
2022-11-12T20:56:28.947Z,102928.22
2022-11-12T20:58:56.208Z,102929.06
2022-11-12T21:01:26.100Z,102930.59
2022-11-12T21:03:53.381Z,102925.56
2022-11-12T21:06:24.945Z,102931.44
2022-11-12T21:08:52.390Z,102927.97
2022-11-12T21:11:22.327Z,102925.47
2022-11-12T21:13:49.565Z,102924.97
2022-11-12T21:16:16.640Z,102925.78
2022-11-12T21:18:44.108Z,102927.31
2022-11-12T21:21:13.799Z,102916.84
2022-11-12T21:23:44.529Z,102922.16
2022-11-12T21:26:13.836Z,102918.66
2022-11-12T21:28:43.575Z,102920.50
2022-11-12T21:31:13.500Z,102919.09
2022-11-12T21:33:41.326Z,102916.44
2022-11-12T21:36:14.814Z,102928.56
2022-11-12T21:38:44.880Z,102915.88
2022-11-12T21:41:14.603Z,102923.25
2022-11-12T21:43:44.482Z,102918.25
2022-11-12T21:46:14.893Z,102918.53
2022-11-12T21:48:42.543Z,102909.06
2022-11-12T21:51:12.981Z,102913.81
2022-11-12T21:53:41.257Z,102912.44
2022-11-12T21:56:12.640Z,102906.88
2022-11-12T21:58:39.631Z,102911.47
2022-11-12T22:01:09.833Z,102913.56
2022-11-12T22:03:38.041Z,102908.56
2022-11-12T22:06:06.712Z,102908.84
2022-11-12T22:08:34.013Z,102903.56
2022-11-12T22:11:03.459Z,102907.88
2022-11-12T22:13:32.431Z,102914.84
2022-11-12T22:16:04.673Z,102916.06
2022-11-12T22:18:34.082Z,102907.72
2022-11-12T22:21:03.993Z,102910.75
2022-11-12T22:23:35.924Z,102910.47
2022-11-12T22:26:05.152Z,102902.25
2022-11-12T22:28:34.330Z,102908.22
2022-11-12T22:31:05.857Z,102913.25
2022-11-12T22:33:33.146Z,102900.69
2022-11-12T22:36:02.397Z,102907.34
2022-11-12T22:38:34.095Z,102900.09
2022-11-12T22:41:03.498Z,102895.19
2022-11-12T22:43:30.552Z,102898.44
2022-11-12T22:46:05.078Z,102899.28
2022-11-12T22:48:32.197Z,102890.34
2022-11-12T22:51:00.587Z,102888.81
2022-11-12T22:53:28.171Z,102881.13
2022-11-12T22:55:55.363Z,102879.75
2022-11-12T22:58:22.383Z,102881.88
2022-11-12T23:00:49.544Z,102872.69
2022-11-12T23:03:17.944Z,102879.78
2022-11-12T23:05:44.944Z,102869.50
2022-11-12T23:08:12.165Z,102874.78
2022-11-12T23:10:44.468Z,102866.13
2022-11-12T23:13:12.647Z,102868.25
2022-11-12T23:15:42.672Z,102858.09
2022-11-12T23:18:09.771Z,102853.09
2022-11-12T23:20:38.291Z,102852.41
2022-11-12T23:23:05.403Z,102850.72
2022-11-12T23:25:33.884Z,102844.44
2022-11-12T23:28:01.038Z,102844.44
2022-11-12T23:30:28.100Z,102846.09
2022-11-12T23:32:55.093Z,102847.09
2022-11-12T23:35:22.075Z,102849.75
2022-11-12T23:37:51.857Z,102850.59
2022-11-12T23:40:18.939Z,102860.34
2022-11-12T23:42:46.014Z,102858.66
2022-11-12T23:45:13.181Z,102857.00
2022-11-12T23:47:40.127Z,102868.28
2022-11-12T23:50:08.303Z,102857.81
2022-11-12T23:52:35.223Z,102855.88
2022-11-12T23:55:04.301Z,102857.41
2022-11-12T23:57:32.839Z,102853.91
2022-11-12T23:59:59.780Z,102848.47
